sensor_id;sensor_type;location;lat;lon;timestamp;pressure;altitude;pressure_sealevel;temperature;humidity
76998;BME280;65930;48.874;10.734;2023-02-01T00:00:54;96565.38;;;1.50;89.33
76998;BME280;65930;48.874;10.734;2023-02-01T00:03:22;96556.25;;;1.46;89.50
76998;BME280;65930;48.874;10.734;2023-02-01T00:05:56;96559.19;;;1.41;89.32
76998;BME280;65930;48.874;10.734;2023-02-01T00:08:26;96559.53;;;1.40;89.09
76998;BME280;65930;48.874;10.734;2023-02-01T00:11:00;96546.88;;;1.35;89.65
76998;BME280;65930;48.874;10.734;2023-02-01T00:13:29;96543.66;;;1.33;89.76
76998;BME280;65930;48.874;10.734;2023-02-01T00:16:05;96547.50;;;1.32;89.59
76998;BME280;65930;48.874;10.734;2023-02-01T00:18:34;96543.78;;;1.37;89.00
76998;BME280;65930;48.874;10.734;2023-02-01T00:21:02;96539.50;;;1.27;89.68
76998;BME280;65930;48.874;10.734;2023-02-01T00:23:34;96549.13;;;1.33;89.63
76998;BME280;65930;48.874;10.734;2023-02-01T00:26:04;96545.72;;;1.36;89.25
76998;BME280;65930;48.874;10.734;2023-02-01T00:28:35;96537.13;;;1.25;89.61
76998;BME280;65930;48.874;10.734;2023-02-01T00:31:03;96535.19;;;1.26;89.73
76998;BME280;65930;48.874;10.734;2023-02-01T00:33:33;96530.69;;;1.21;90.18
76998;BME280;65930;48.874;10.734;2023-02-01T00:36:04;96530.31;;;1.31;89.70
76998;BME280;65930;48.874;10.734;2023-02-01T00:38:36;96526.34;;;1.29;89.93
76998;BME280;65930;48.874;10.734;2023-02-01T00:41:06;96512.81;;;1.32;90.21
76998;BME280;65930;48.874;10.734;2023-02-01T00:43:34;96512.38;;;1.30;90.09
76998;BME280;65930;48.874;10.734;2023-02-01T00:46:03;96516.22;;;1.29;90.39
76998;BME280;65930;48.874;10.734;2023-02-01T00:48:31;96512.88;;;1.24;89.94
76998;BME280;65930;48.874;10.734;2023-02-01T00:50:59;96505.63;;;1.28;89.31
76998;BME280;65930;48.874;10.734;2023-02-01T00:53:27;96505.94;;;1.35;89.40
76998;BME280;65930;48.874;10.734;2023-02-01T00:55:57;96504.78;;;1.36;88.85
76998;BME280;65930;48.874;10.734;2023-02-01T00:58:26;96502.84;;;1.37;89.02
76998;BME280;65930;48.874;10.734;2023-02-01T01:01:01;96498.47;;;1.44;88.85
76998;BME280;65930;48.874;10.734;2023-02-01T01:03:31;96499.41;;;1.48;88.68
76998;BME280;65930;48.874;10.734;2023-02-01T01:06:03;96502.88;;;1.57;88.49
76998;BME280;65930;48.874;10.734;2023-02-01T01:08:31;96487.38;;;1.49;88.10
76998;BME280;65930;48.874;10.734;2023-02-01T01:11:05;96487.63;;;1.56;88.19
76998;BME280;65930;48.874;10.734;2023-02-01T01:13:34;96482.28;;;1.60;88.09
76998;BME280;65930;48.874;10.734;2023-02-01T01:16:04;96486.94;;;1.59;88.05
76998;BME280;65930;48.874;10.734;2023-02-01T01:18:34;96482.09;;;1.65;88.28
76998;BME280;65930;48.874;10.734;2023-02-01T01:21:04;96491.78;;;1.62;87.70
76998;BME280;65930;48.874;10.734;2023-02-01T01:23:33;96490.97;;;1.62;88.20
76998;BME280;65930;48.874;10.734;2023-02-01T01:26:06;96498.56;;;1.56;87.52
76998;BME280;65930;48.874;10.734;2023-02-01T01:28:35;96493.34;;;1.63;87.88
76998;BME280;65930;48.874;10.734;2023-02-01T01:31:04;96495.31;;;1.63;87.48
76998;BME280;65930;48.874;10.734;2023-02-01T01:33:35;96489.50;;;1.64;87.52
76998;BME280;65930;48.874;10.734;2023-02-01T01:36:05;96493.09;;;1.56;88.13
76998;BME280;65930;48.874;10.734;2023-02-01T01:38:33;96495.50;;;1.58;88.02
76998;BME280;65930;48.874;10.734;2023-02-01T01:41:00;96492.91;;;1.61;87.61
76998;BME280;65930;48.874;10.734;2023-02-01T01:46:24;96481.03;;;1.57;87.91
76998;BME280;65930;48.874;10.734;2023-02-01T01:49:01;96480.84;;;1.62;87.76
76998;BME280;65930;48.874;10.734;2023-02-01T01:51:36;96491.22;;;1.69;87.61
76998;BME280;65930;48.874;10.734;2023-02-01T01:54:11;96496.16;;;1.75;87.72
76998;BME280;65930;48.874;10.734;2023-02-01T01:56:48;96492.50;;;1.71;87.31
76998;BME280;65930;48.874;10.734;2023-02-01T01:59:21;96479.50;;;1.68;87.91
76998;BME280;65930;48.874;10.734;2023-02-01T02:01:52;96478.16;;;1.74;87.27
76998;BME280;65930;48.874;10.734;2023-02-01T02:04:20;96476.72;;;1.77;87.52
76998;BME280;65930;48.874;10.734;2023-02-01T02:06:54;96478.84;;;1.71;87.68
76998;BME280;65930;48.874;10.734;2023-02-01T02:09:23;96467.97;;;1.84;86.94
76998;BME280;65930;48.874;10.734;2023-02-01T02:11:51;96479.22;;;1.82;87.19
76998;BME280;65930;48.874;10.734;2023-02-01T02:14:23;96468.38;;;1.94;86.97
76998;BME280;65930;48.874;10.734;2023-02-01T02:17:07;96454.91;;;2.10;86.31
76998;BME280;65930;48.874;10.734;2023-02-01T02:20:45;96454.00;;;2.18;85.58
76998;BME280;65930;48.874;10.734;2023-02-01T02:26:34;96446.53;;;2.27;85.35
76998;BME280;65930;48.874;10.734;2023-02-01T02:29:36;96458.69;;;2.30;84.90
76998;BME280;65930;48.874;10.734;2023-02-01T02:35:30;96459.19;;;2.32;84.89
76998;BME280;65930;48.874;10.734;2023-02-01T02:38:12;96455.97;;;2.30;84.76
76998;BME280;65930;48.874;10.734;2023-02-01T02:40:50;96444.22;;;2.29;84.17
76998;BME280;65930;48.874;10.734;2023-02-01T02:43:24;96432.28;;;2.34;84.54
76998;BME280;65930;48.874;10.734;2023-02-01T02:46:21;96441.28;;;2.34;84.40
76998;BME280;65930;48.874;10.734;2023-02-01T02:49:14;96434.91;;;2.30;84.04
76998;BME280;65930;48.874;10.734;2023-02-01T02:51:52;96421.44;;;2.25;84.60
76998;BME280;65930;48.874;10.734;2023-02-01T02:54:45;96417.91;;;2.25;84.08
76998;BME280;65930;48.874;10.734;2023-02-01T02:57:19;96412.69;;;2.32;83.95
76998;BME280;65930;48.874;10.734;2023-02-01T03:00:10;96406.91;;;2.33;83.65
76998;BME280;65930;48.874;10.734;2023-02-01T03:02:56;96405.75;;;2.34;83.74
76998;BME280;65930;48.874;10.734;2023-02-01T03:05:46;96417.47;;;2.35;82.67
76998;BME280;65930;48.874;10.734;2023-02-01T03:08:17;96416.25;;;2.32;83.53
76998;BME280;65930;48.874;10.734;2023-02-01T03:10:52;96413.38;;;2.29;83.47
76998;BME280;65930;48.874;10.734;2023-02-01T03:13:31;96409.97;;;2.32;83.25
76998;BME280;65930;48.874;10.734;2023-02-01T03:16:07;96402.34;;;2.37;83.25
76998;BME280;65930;48.874;10.734;2023-02-01T03:18:48;96395.59;;;2.35;82.67
76998;BME280;65930;48.874;10.734;2023-02-01T03:21:23;96397.53;;;2.34;82.74
76998;BME280;65930;48.874;10.734;2023-02-01T03:23:59;96396.09;;;2.37;83.39
76998;BME280;65930;48.874;10.734;2023-02-01T03:26:31;96394.81;;;2.34;83.05
76998;BME280;65930;48.874;10.734;2023-02-01T03:29:07;96398.91;;;2.28;83.34
76998;BME280;65930;48.874;10.734;2023-02-01T03:31:37;96407.22;;;2.32;83.42
76998;BME280;65930;48.874;10.734;2023-02-01T03:34:05;96410.88;;;2.36;83.13
76998;BME280;65930;48.874;10.734;2023-02-01T03:36:39;96404.19;;;2.45;82.90
76998;BME280;65930;48.874;10.734;2023-02-01T03:39:17;96395.97;;;2.45;82.69
76998;BME280;65930;48.874;10.734;2023-02-01T03:41:52;96396.19;;;2.40;82.72
76998;BME280;65930;48.874;10.734;2023-02-01T03:44:24;96400.28;;;2.34;82.93
76998;BME280;65930;48.874;10.734;2023-02-01T03:46:58;96399.16;;;2.35;83.30
76998;BME280;65930;48.874;10.734;2023-02-01T03:49:34;96400.63;;;2.33;83.79
76998;BME280;65930;48.874;10.734;2023-02-01T03:52:06;96400.75;;;2.36;82.72
76998;BME280;65930;48.874;10.734;2023-02-01T03:54:38;96405.31;;;2.32;83.05
76998;BME280;65930;48.874;10.734;2023-02-01T03:57:11;96403.22;;;2.29;83.34
76998;BME280;65930;48.874;10.734;2023-02-01T03:59:42;96396.09;;;2.37;83.18
76998;BME280;65930;48.874;10.734;2023-02-01T04:02:10;96415.31;;;2.28;83.48
76998;BME280;65930;48.874;10.734;2023-02-01T04:04:38;96403.22;;;2.29;83.25
76998;BME280;65930;48.874;10.734;2023-02-01T04:07:06;96406.22;;;2.36;82.62
76998;BME280;65930;48.874;10.734;2023-02-01T04:09:34;96409.63;;;2.33;83.60
76998;BME280;65930;48.874;10.734;2023-02-01T04:12:04;96397.31;;;2.27;83.49
76998;BME280;65930;48.874;10.734;2023-02-01T04:14:32;96393.44;;;2.28;83.47
76998;BME280;65930;48.874;10.734;2023-02-01T04:17:01;96389.56;;;2.29;83.17
76998;BME280;65930;48.874;10.734;2023-02-01T04:19:30;96392.88;;;2.35;83.20
76998;BME280;65930;48.874;10.734;2023-02-01T04:21:57;96395.50;;;2.31;83.58
76998;BME280;65930;48.874;10.734;2023-02-01T04:24:26;96402.56;;;2.32;83.02
76998;BME280;65930;48.874;10.734;2023-02-01T04:26:54;96393.66;;;2.23;83.75
76998;BME280;65930;48.874;10.734;2023-02-01T04:29:23;96388.75;;;2.16;84.04
76998;BME280;65930;48.874;10.734;2023-02-01T04:31:51;96377.72;;;2.25;83.87
76998;BME280;65930;48.874;10.734;2023-02-01T04:34:19;96382.94;;;2.18;84.04
76998;BME280;65930;48.874;10.734;2023-02-01T04:36:49;96359.72;;;2.24;83.28
76998;BME280;65930;48.874;10.734;2023-02-01T04:39:17;96350.16;;;2.30;83.47
76998;BME280;65930;48.874;10.734;2023-02-01T04:41:45;96353.59;;;2.27;83.22
76998;BME280;65930;48.874;10.734;2023-02-01T04:44:15;96362.22;;;2.29;82.90
76998;BME280;65930;48.874;10.734;2023-02-01T04:46:46;96361.34;;;2.37;82.62
76998;BME280;65930;48.874;10.734;2023-02-01T04:49:14;96387.88;;;2.37;82.62
76998;BME280;65930;48.874;10.734;2023-02-01T04:51:43;96379.31;;;2.38;82.47
76998;BME280;65930;48.874;10.734;2023-02-01T04:54:11;96377.53;;;2.42;81.68
76998;BME280;65930;48.874;10.734;2023-02-01T04:56:40;96387.31;;;2.43;82.33
76998;BME280;65930;48.874;10.734;2023-02-01T04:59:11;96380.47;;;2.37;82.56
76998;BME280;65930;48.874;10.734;2023-02-01T05:01:39;96379.91;;;2.44;82.15
76998;BME280;65930;48.874;10.734;2023-02-01T05:04:08;96388.00;;;2.40;82.53
76998;BME280;65930;48.874;10.734;2023-02-01T05:06:36;96373.41;;;2.36;82.70
76998;BME280;65930;48.874;10.734;2023-02-01T05:09:04;96375.69;;;2.34;82.30
76998;BME280;65930;48.874;10.734;2023-02-01T05:11:32;96370.22;;;2.34;82.57
76998;BME280;65930;48.874;10.734;2023-02-01T05:14:18;96367.47;;;2.34;82.65
76998;BME280;65930;48.874;10.734;2023-02-01T05:16:45;96367.69;;;2.29;83.10
76998;BME280;65930;48.874;10.734;2023-02-01T05:19:15;96371.81;;;2.35;82.84
76998;BME280;65930;48.874;10.734;2023-02-01T05:21:43;96365.66;;;2.38;83.19
76998;BME280;65930;48.874;10.734;2023-02-01T05:24:11;96365.66;;;2.38;83.18
76998;BME280;65930;48.874;10.734;2023-02-01T05:26:41;96366.44;;;2.39;83.25
76998;BME280;65930;48.874;10.734;2023-02-01T05:29:10;96358.13;;;2.35;83.02
76998;BME280;65930;48.874;10.734;2023-02-01T05:31:38;96364.78;;;2.46;82.61
76998;BME280;65930;48.874;10.734;2023-02-01T05:34:08;96352.91;;;2.54;82.05
76998;BME280;65930;48.874;10.734;2023-02-01T05:36:37;96357.69;;;2.57;81.79
76998;BME280;65930;48.874;10.734;2023-02-01T05:39:05;96357.03;;;2.60;81.85
76998;BME280;65930;48.874;10.734;2023-02-01T05:41:33;96359.97;;;2.67;81.52
76998;BME280;65930;48.874;10.734;2023-02-01T05:44:01;96350.16;;;2.66;81.59
76998;BME280;65930;48.874;10.734;2023-02-01T05:46:29;96345.63;;;2.71;81.28
76998;BME280;65930;48.874;10.734;2023-02-01T05:48:57;96347.44;;;2.79;81.02
76998;BME280;65930;48.874;10.734;2023-02-01T05:51:25;96337.97;;;2.88;80.42
76998;BME280;65930;48.874;10.734;2023-02-01T05:53:54;96340.91;;;2.95;79.78
76998;BME280;65930;48.874;10.734;2023-02-01T05:56:22;96331.66;;;3.00;79.69
76998;BME280;65930;48.874;10.734;2023-02-01T05:58:50;96329.16;;;2.95;79.79
76998;BME280;65930;48.874;10.734;2023-02-01T06:01:18;96344.22;;;3.01;79.95
76998;BME280;65930;48.874;10.734;2023-02-01T06:03:45;96337.16;;;3.00;79.92
76998;BME280;65930;48.874;10.734;2023-02-01T06:06:14;96347.75;;;3.01;80.03
76998;BME280;65930;48.874;10.734;2023-02-01T06:08:41;96350.81;;;3.12;79.01
76998;BME280;65930;48.874;10.734;2023-02-01T06:11:11;96341.25;;;3.06;79.21
76998;BME280;65930;48.874;10.734;2023-02-01T06:13:57;96358.66;;;3.14;78.89
76998;BME280;65930;48.874;10.734;2023-02-01T06:16:25;96349.31;;;3.15;78.93
76998;BME280;65930;48.874;10.734;2023-02-01T06:18:53;96354.69;;;3.11;79.48
76998;BME280;65930;48.874;10.734;2023-02-01T06:21:21;96335.19;;;3.13;79.05
76998;BME280;65930;48.874;10.734;2023-02-01T06:23:51;96356.75;;;3.14;79.11
76998;BME280;65930;48.874;10.734;2023-02-01T06:26:21;96351.81;;;3.20;79.29
76998;BME280;65930;48.874;10.734;2023-02-01T06:28:49;96348.19;;;3.16;79.28
76998;BME280;65930;48.874;10.734;2023-02-01T06:31:17;96343.75;;;3.11;79.40
76998;BME280;65930;48.874;10.734;2023-02-01T06:33:45;96340.78;;;3.16;79.15
76998;BME280;65930;48.874;10.734;2023-02-01T06:36:13;96328.69;;;3.17;78.51
76998;BME280;65930;48.874;10.734;2023-02-01T06:38:42;96341.69;;;3.20;79.12
76998;BME280;65930;48.874;10.734;2023-02-01T06:41:10;96346.44;;;3.23;78.30
76998;BME280;65930;48.874;10.734;2023-02-01T06:43:40;96344.19;;;3.25;78.43
76998;BME280;65930;48.874;10.734;2023-02-01T06:46:11;96339.84;;;3.24;78.41
76998;BME280;65930;48.874;10.734;2023-02-01T06:48:40;96348.16;;;3.28;77.80
76998;BME280;65930;48.874;10.734;2023-02-01T06:51:19;96337.09;;;3.24;78.14
76998;BME280;65930;48.874;10.734;2023-02-01T06:53:47;96340.97;;;3.23;78.28
76998;BME280;65930;48.874;10.734;2023-02-01T06:56:15;96334.25;;;3.21;78.53
76998;BME280;65930;48.874;10.734;2023-02-01T06:58:44;96341.56;;;3.17;78.54
76998;BME280;65930;48.874;10.734;2023-02-01T07:01:13;96333.69;;;3.15;78.54
76998;BME280;65930;48.874;10.734;2023-02-01T07:03:42;96344.41;;;3.20;78.81
76998;BME280;65930;48.874;10.734;2023-02-01T07:06:10;96328.41;;;3.22;78.96
76998;BME280;65930;48.874;10.734;2023-02-01T07:08:38;96335.06;;;3.21;78.50
76998;BME280;65930;48.874;10.734;2023-02-01T07:11:09;96340.31;;;3.26;78.50
76998;BME280;65930;48.874;10.734;2023-02-01T07:13:38;96355.03;;;3.22;78.73
76998;BME280;65930;48.874;10.734;2023-02-01T07:16:11;96345.88;;;3.30;78.55
76998;BME280;65930;48.874;10.734;2023-02-01T07:18:40;96361.50;;;3.29;77.98
76998;BME280;65930;48.874;10.734;2023-02-01T07:21:08;96358.44;;;3.31;78.22
76998;BME280;65930;48.874;10.734;2023-02-01T07:23:36;96357.50;;;3.27;78.38
76998;BME280;65930;48.874;10.734;2023-02-01T07:26:06;96357.63;;;3.30;78.44
76998;BME280;65930;48.874;10.734;2023-02-01T07:28:35;96381.25;;;3.23;79.10
76998;BME280;65930;48.874;10.734;2023-02-01T07:31:05;96389.44;;;3.23;78.51
76998;BME280;65930;48.874;10.734;2023-02-01T07:33:34;96369.06;;;3.20;79.01
76998;BME280;65930;48.874;10.734;2023-02-01T07:36:05;96368.34;;;3.23;78.38
76998;BME280;65930;48.874;10.734;2023-02-01T07:38:34;96378.41;;;3.19;79.02
76998;BME280;65930;48.874;10.734;2023-02-01T07:41:04;96376.13;;;3.21;78.76
76998;BME280;65930;48.874;10.734;2023-02-01T07:43:32;96396.44;;;3.20;78.46
76998;BME280;65930;48.874;10.734;2023-02-01T07:46:01;96382.41;;;3.22;78.92
76998;BME280;65930;48.874;10.734;2023-02-01T07:48:31;96402.59;;;3.17;79.29
76998;BME280;65930;48.874;10.734;2023-02-01T07:51:03;96379.00;;;3.13;80.03
76998;BME280;65930;48.874;10.734;2023-02-01T07:53:33;96392.31;;;3.14;80.24
76998;BME280;65930;48.874;10.734;2023-02-01T07:56:02;96386.88;;;3.02;80.60
76998;BME280;65930;48.874;10.734;2023-02-01T07:58:30;96383.91;;;2.95;81.85
76998;BME280;65930;48.874;10.734;2023-02-01T08:00:58;96381.75;;;2.88;82.88
76998;BME280;65930;48.874;10.734;2023-02-01T08:03:43;96385.63;;;2.87;83.23
76998;BME280;65930;48.874;10.734;2023-02-01T08:06:13;96384.16;;;2.78;84.03
76998;BME280;65930;48.874;10.734;2023-02-01T08:08:41;96375.47;;;2.76;83.64
76998;BME280;65930;48.874;10.734;2023-02-01T08:11:12;96386.06;;;2.77;83.56
76998;BME280;65930;48.874;10.734;2023-02-01T08:13:41;96402.81;;;2.76;83.58
76998;BME280;65930;48.874;10.734;2023-02-01T08:16:10;96399.66;;;2.74;84.44
76998;BME280;65930;48.874;10.734;2023-02-01T08:18:38;96410.00;;;2.80;83.65
76998;BME280;65930;48.874;10.734;2023-02-01T08:21:08;96406.50;;;2.80;84.03
76998;BME280;65930;48.874;10.734;2023-02-01T08:23:40;96420.19;;;2.80;83.78
76998;BME280;65930;48.874;10.734;2023-02-01T08:26:10;96416.63;;;2.91;82.54
76998;BME280;65930;48.874;10.734;2023-02-01T08:28:41;96424.38;;;2.89;82.69
76998;BME280;65930;48.874;10.734;2023-02-01T08:31:11;96410.59;;;2.86;83.30
76998;BME280;65930;48.874;10.734;2023-02-01T08:33:42;96394.06;;;2.82;82.91
76998;BME280;65930;48.874;10.734;2023-02-01T08:36:11;96392.13;;;2.83;83.25
76998;BME280;65930;48.874;10.734;2023-02-01T08:38:42;96384.34;;;2.85;83.03
76998;BME280;65930;48.874;10.734;2023-02-01T08:41:11;96388.25;;;2.84;83.05
76998;BME280;65930;48.874;10.734;2023-02-01T08:43:41;96377.53;;;2.79;82.74
76998;BME280;65930;48.874;10.734;2023-02-01T08:46:10;96390.63;;;2.85;83.23
76998;BME280;65930;48.874;10.734;2023-02-01T08:48:38;96400.91;;;2.88;82.63
76998;BME280;65930;48.874;10.734;2023-02-01T08:51:09;96403.75;;;2.92;82.37
76998;BME280;65930;48.874;10.734;2023-02-01T08:53:40;96402.72;;;2.96;82.41
76998;BME280;65930;48.874;10.734;2023-02-01T08:56:08;96408.09;;;2.93;81.68
76998;BME280;65930;48.874;10.734;2023-02-01T08:58:37;96414.47;;;2.97;81.64
76998;BME280;65930;48.874;10.734;2023-02-01T09:01:08;96415.28;;;2.97;82.08
76998;BME280;65930;48.874;10.734;2023-02-01T09:03:36;96413.56;;;2.93;82.93
76998;BME280;65930;48.874;10.734;2023-02-01T09:06:07;96416.72;;;2.95;82.10
76998;BME280;65930;48.874;10.734;2023-02-01T09:08:36;96402.63;;;2.93;82.01
76998;BME280;65930;48.874;10.734;2023-02-01T09:11:08;96408.09;;;2.93;82.34
76998;BME280;65930;48.874;10.734;2023-02-01T09:13:36;96397.94;;;2.93;81.60
76998;BME280;65930;48.874;10.734;2023-02-01T09:16:04;96421.06;;;2.96;81.53
76998;BME280;65930;48.874;10.734;2023-02-01T09:18:32;96420.03;;;3.00;80.69
76998;BME280;65930;48.874;10.734;2023-02-01T09:21:03;96426.09;;;3.06;80.98
76998;BME280;65930;48.874;10.734;2023-02-01T09:23:32;96424.72;;;3.00;81.38
76998;BME280;65930;48.874;10.734;2023-02-01T09:26:01;96425.53;;;3.00;81.77
76998;BME280;65930;48.874;10.734;2023-02-01T09:28:30;96443.22;;;3.03;81.81
76998;BME280;65930;48.874;10.734;2023-02-01T09:31:00;96433.84;;;3.04;81.77
76998;BME280;65930;48.874;10.734;2023-02-01T09:33:29;96413.19;;;2.94;81.40
76998;BME280;65930;48.874;10.734;2023-02-01T09:35:57;96438.66;;;3.07;80.55
76998;BME280;65930;48.874;10.734;2023-02-01T09:38:26;96425.19;;;3.02;81.35
76998;BME280;65930;48.874;10.734;2023-02-01T09:40:55;96434.75;;;3.08;81.48
76998;BME280;65930;48.874;10.734;2023-02-01T09:43:36;96432.59;;;3.01;81.79
76998;BME280;65930;48.874;10.734;2023-02-01T09:46:20;96441.38;;;2.95;81.72
76998;BME280;65930;48.874;10.734;2023-02-01T09:48:53;96448.34;;;2.92;81.32
76998;BME280;65930;48.874;10.734;2023-02-01T09:51:25;96449.78;;;2.90;82.21
76998;BME280;65930;48.874;10.734;2023-02-01T09:54:01;96463.94;;;2.92;81.94
76998;BME280;65930;48.874;10.734;2023-02-01T09:56:39;96459.84;;;2.98;81.50
76998;BME280;65930;48.874;10.734;2023-02-01T09:59:24;96459.84;;;2.98;82.04
76998;BME280;65930;48.874;10.734;2023-02-01T10:01:57;96456.44;;;3.01;81.30
76998;BME280;65930;48.874;10.734;2023-02-01T10:04:26;96461.44;;;2.99;81.13
76998;BME280;65930;48.874;10.734;2023-02-01T10:07:06;96456.44;;;3.01;81.28
76998;BME280;65930;48.874;10.734;2023-02-01T10:09:54;96445.94;;;3.03;81.29
76998;BME280;65930;48.874;10.734;2023-02-01T10:15:49;96437.03;;;3.06;80.82
76998;BME280;65930;48.874;10.734;2023-02-01T10:18:37;96442.94;;;3.08;81.21
76998;BME280;65930;48.874;10.734;2023-02-01T10:21:18;96444.13;;;3.07;81.40
76998;BME280;65930;48.874;10.734;2023-02-01T10:24:14;96449.81;;;3.02;81.49
76998;BME280;65930;48.874;10.734;2023-02-01T10:26:51;96456.63;;;3.08;80.39
76998;BME280;65930;48.874;10.734;2023-02-01T10:29:28;96457.78;;;3.19;80.50
76998;BME280;65930;48.874;10.734;2023-02-01T10:32:00;96463.25;;;3.19;79.77
76998;BME280;65930;48.874;10.734;2023-02-01T10:34:33;96462.13;;;3.20;79.64
76998;BME280;65930;48.874;10.734;2023-02-01T10:37:18;96460.28;;;3.24;79.97
76998;BME280;65930;48.874;10.734;2023-02-01T10:39:49;96470.13;;;3.25;79.40
76998;BME280;65930;48.874;10.734;2023-02-01T10:42:23;96475.59;;;3.25;79.91
76998;BME280;65930;48.874;10.734;2023-02-01T10:44:59;96481.06;;;3.25;79.00
76998;BME280;65930;48.874;10.734;2023-02-01T10:47:31;96475.47;;;3.34;78.19
76998;BME280;65930;48.874;10.734;2023-02-01T10:50:13;96483.78;;;3.37;78.86
76998;BME280;65930;48.874;10.734;2023-02-01T10:52:50;96481.50;;;3.39;78.62
76998;BME280;65930;48.874;10.734;2023-02-01T10:55:34;96488.22;;;3.42;78.42
76998;BME280;65930;48.874;10.734;2023-02-01T10:58:07;96476.94;;;3.43;78.01
76998;BME280;65930;48.874;10.734;2023-02-01T11:00:45;96472.59;;;3.42;77.66
76998;BME280;65930;48.874;10.734;2023-02-01T11:03:32;96479.66;;;3.55;77.12
76998;BME280;65930;48.874;10.734;2023-02-01T11:06:02;96467.13;;;3.54;77.49
76998;BME280;65930;48.874;10.734;2023-02-01T11:08:30;96461.75;;;3.58;77.34
76998;BME280;65930;48.874;10.734;2023-02-01T11:11:01;96451.69;;;3.62;77.23
76998;BME280;65930;48.874;10.734;2023-02-01T11:13:31;96457.72;;;3.55;77.65
76998;BME280;65930;48.874;10.734;2023-02-01T11:16:03;96472.16;;;3.40;79.44
76998;BME280;65930;48.874;10.734;2023-02-01T11:18:37;96474.69;;;3.21;81.13
76998;BME280;65930;48.874;10.734;2023-02-01T11:21:06;96475.56;;;3.01;83.47
76998;BME280;65930;48.874;10.734;2023-02-01T11:23:42;96461.22;;;2.92;83.78
76998;BME280;65930;48.874;10.734;2023-02-01T11:26:13;96463.47;;;2.90;83.42
76998;BME280;65930;48.874;10.734;2023-02-01T11:28:52;96461.22;;;2.92;83.32
76998;BME280;65930;48.874;10.734;2023-02-01T11:31:23;96463.84;;;3.00;83.31
76998;BME280;65930;48.874;10.734;2023-02-01T11:33:57;96456.88;;;3.03;83.46
76998;BME280;65930;48.874;10.734;2023-02-01T11:36:30;96444.56;;;3.09;82.76
76998;BME280;65930;48.874;10.734;2023-02-01T11:39:23;96444.78;;;3.16;80.66
76998;BME280;65930;48.874;10.734;2023-02-01T11:41:59;96446.50;;;3.21;80.14
76998;BME280;65930;48.874;10.734;2023-02-01T11:44:33;96433.38;;;3.26;80.63
76998;BME280;65930;48.874;10.734;2023-02-01T11:47:23;96426.63;;;3.36;78.63
76998;BME280;65930;48.874;10.734;2023-02-01T11:49:54;96423.28;;;3.54;78.43
76998;BME280;65930;48.874;10.734;2023-02-01T11:52:43;96430.56;;;3.63;78.56
76998;BME280;65930;48.874;10.734;2023-02-01T11:55:38;96419.66;;;3.78;77.49
76998;BME280;65930;48.874;10.734;2023-02-01T11:58:20;96410.31;;;3.79;75.99
76998;BME280;65930;48.874;10.734;2023-02-01T12:01:07;96396.50;;;3.76;75.98
76998;BME280;65930;48.874;10.734;2023-02-01T12:06:48;96391.50;;;3.66;76.71
76998;BME280;65930;48.874;10.734;2023-02-01T12:09:31;96396.28;;;3.69;76.33
76998;BME280;65930;48.874;10.734;2023-02-01T12:12:10;96387.88;;;3.62;77.04
76998;BME280;65930;48.874;10.734;2023-02-01T12:14:56;96393.13;;;3.67;76.26
76998;BME280;65930;48.874;10.734;2023-02-01T12:17:55;96389.47;;;3.63;76.85
76998;BME280;65930;48.874;10.734;2023-02-01T12:20:56;96381.16;;;3.59;76.62
76998;BME280;65930;48.874;10.734;2023-02-01T12:26:42;96385.84;;;3.59;75.96
76998;BME280;65930;48.874;10.734;2023-02-01T12:29:35;96389.81;;;3.61;76.09
76998;BME280;65930;48.874;10.734;2023-02-01T12:32:27;96402.16;;;3.55;74.53
76998;BME280;65930;48.874;10.734;2023-02-01T12:35:17;96394.06;;;3.46;75.04
76998;BME280;65930;48.874;10.734;2023-02-01T12:37:59;96397.28;;;3.48;75.19
76998;BME280;65930;48.874;10.734;2023-02-01T12:40:46;96400.44;;;3.50;75.25
76998;BME280;65930;48.874;10.734;2023-02-01T12:43:22;96394.97;;;3.50;74.83
76998;BME280;65930;48.874;10.734;2023-02-01T12:45:58;96403.75;;;3.56;75.30
76998;BME280;65930;48.874;10.734;2023-02-01T12:48:31;96406.16;;;3.58;75.44
76998;BME280;65930;48.874;10.734;2023-02-01T12:51:04;96396.56;;;3.64;76.33
76998;BME280;65930;48.874;10.734;2023-02-01T12:53:44;96407.06;;;3.62;77.04
76998;BME280;65930;48.874;10.734;2023-02-01T12:56:23;96409.34;;;3.60;76.65
76998;BME280;65930;48.874;10.734;2023-02-01T12:58:56;96409.78;;;3.62;75.99
76998;BME280;65930;48.874;10.734;2023-02-01T13:01:34;96392.47;;;3.58;75.78
76998;BME280;65930;48.874;10.734;2023-02-01T13:04:10;96388.91;;;3.57;75.92
76998;BME280;65930;48.874;10.734;2023-02-01T13:06:45;96392.13;;;3.59;76.16
76998;BME280;65930;48.874;10.734;2023-02-01T13:09:22;96389.72;;;3.58;75.89
76998;BME280;65930;48.874;10.734;2023-02-01T13:11:57;96393.34;;;3.62;74.97
76998;BME280;65930;48.874;10.734;2023-02-01T13:14:33;96386.75;;;3.63;73.94
76998;BME280;65930;48.874;10.734;2023-02-01T13:17:12;96378.53;;;3.63;74.32
76998;BME280;65930;48.874;10.734;2023-02-01T13:19:47;96377.00;;;3.65;73.06
76998;BME280;65930;48.874;10.734;2023-02-01T13:22:23;96372.34;;;3.66;72.74
76998;BME280;65930;48.874;10.734;2023-02-01T13:24:57;96375.53;;;3.68;72.88
76998;BME280;65930;48.874;10.734;2023-02-01T13:27:29;96368.00;;;3.65;72.36
76998;BME280;65930;48.874;10.734;2023-02-01T13:30:03;96373.47;;;3.65;72.88
76998;BME280;65930;48.874;10.734;2023-02-01T13:32:57;96372.81;;;3.68;72.18
76998;BME280;65930;48.874;10.734;2023-02-01T13:36:16;96374.38;;;3.69;72.63
76998;BME280;65930;48.874;10.734;2023-02-01T13:39:19;96364.13;;;3.66;73.07
76998;BME280;65930;48.874;10.734;2023-02-01T13:41:56;96364.13;;;3.66;73.83
76998;BME280;65930;48.874;10.734;2023-02-01T13:44:30;96363.94;;;3.59;74.13
76998;BME280;65930;48.874;10.734;2023-02-01T13:47:02;96361.63;;;3.61;73.98
76998;BME280;65930;48.874;10.734;2023-02-01T13:49:39;96369.16;;;3.64;72.89
76998;BME280;65930;48.874;10.734;2023-02-01T13:52:25;96366.63;;;3.71;72.69